Time;durP1;ratioP1;P1;durP2;ratioP2;P2;SDS_P1;SDS_P2;PMS_P1;PMS_P2;Temp;Humidity;BMP_temperature;BMP_pressure;BME280_temperature;BME280_humidity;BME280_pressure;Samples;Min_cycle;Max_cycle;Signal;HPM_P1;HPM_P2
2022/06/24 00:00:17;;;;;;;3.30;1.50;;;24.20;80.30;;;;;;5034722;28;20203;-75
2022/06/24 00:02:49;;;;;;;2.60;1.52;;;24.10;80.20;;;;;;5034772;28;20298;-75
2022/06/24 00:05:16;;;;;;;2.30;1.63;;;24.10;80.20;;;;;;5033919;28;20189;-75
2022/06/24 00:07:50;;;;;;;2.03;1.40;;;24.10;80.20;;;;;;5034569;28;20677;-75
2022/06/24 00:10:23;;;;;;;3.95;1.45;;;24.20;80.30;;;;;;5034819;28;20226;-75
2022/06/24 00:12:51;;;;;;;1.95;1.30;;;24.10;80.20;;;;;;5034417;28;20634;-75
2022/06/24 00:15:30;;;;;;;2.22;1.50;;;24.10;80.70;;;;;;5034172;28;20199;-75
2022/06/24 00:17:56;;;;;;;2.00;1.50;;;24.10;80.20;;;;;;5034376;28;20191;-75
2022/06/24 00:20:23;;;;;;;1.33;1.23;;;24.10;80.20;;;;;;5034399;28;20238;-75
2022/06/24 00:22:52;;;;;;;3.38;1.48;;;24.10;80.20;;;;;;5035385;28;20226;-75
2022/06/24 00:25:22;;;;;;;2.90;1.63;;;24.10;80.20;;;;;;5033823;28;20191;-75
2022/06/24 00:28:09;;;;;;;2.72;1.38;;;24.10;80.20;;;;;;5034169;28;20194;-75
2022/06/24 00:30:37;;;;;;;2.60;1.45;;;24.10;80.20;;;;;;5033998;28;20202;-75
2022/06/24 00:33:16;;;;;;;2.88;1.27;;;24.10;80.30;;;;;;5033999;28;20202;-75
2022/06/24 00:35:47;;;;;;;2.55;1.40;;;24.10;80.30;;;;;;5033506;28;20195;-75
2022/06/24 00:38:28;;;;;;;2.63;1.38;;;24.10;80.30;;;;;;5033790;28;20660;-75
2022/06/24 00:41:00;;;;;;;2.92;1.38;;;24.10;80.30;;;;;;5033805;28;20203;-75
2022/06/24 00:43:34;;;;;;;3.15;1.40;;;24.10;80.40;;;;;;5033122;28;20596;-75
2022/06/24 00:46:15;;;;;;;2.00;1.50;;;24.10;80.30;;;;;;5033190;28;20186;-75
2022/06/24 00:48:47;;;;;;;1.95;1.55;;;24.10;80.30;;;;;;5033580;28;20179;-75
2022/06/24 00:51:14;;;;;;;2.35;1.58;;;24.10;80.30;;;;;;5033854;28;20203;-75
2022/06/24 00:53:48;;;;;;;1.48;1.33;;;24.10;80.30;;;;;;5034027;28;20198;-75
2022/06/24 00:56:21;;;;;;;2.35;1.35;;;24.10;80.40;;;;;;5032905;28;20175;-74
2022/06/24 00:58:54;;;;;;;2.17;1.33;;;24.10;80.30;;;;;;5033544;28;20229;-75
2022/06/24 01:01:32;;;;;;;2.33;1.10;;;24.10;80.40;;;;;;5034681;28;20282;-75
2022/06/24 01:04:00;;;;;;;2.00;1.50;;;24.10;80.30;;;;;;5033315;28;20179;-75
2022/06/24 01:06:28;;;;;;;2.30;1.20;;;24.10;80.30;;;;;;5032863;28;20270;-75
2022/06/24 01:08:55;;;;;;;1.58;1.30;;;24.10;80.30;;;;;;5033401;28;20283;-75
2022/06/24 01:11:32;;;;;;;1.98;1.42;;;24.10;80.30;;;;;;5033486;28;20223;-75
2022/06/24 01:13:58;;;;;;;1.95;1.45;;;24.10;81.00;;;;;;5033404;28;20183;-75
2022/06/24 01:16:26;;;;;;;2.60;1.30;;;24.10;80.30;;;;;;5032952;28;20187;-75
2022/06/24 01:18:58;;;;;;;2.75;1.52;;;24.10;80.30;;;;;;5032971;28;20227;-75
2022/06/24 01:21:47;;;;;;;2.47;1.40;;;24.10;80.30;;;;;;5033412;28;20238;-75
2022/06/24 01:24:31;;;;;;;2.03;1.20;;;24.10;80.30;;;;;;5033191;28;20171;-75
2022/06/24 01:26:58;;;;;;;1.90;1.33;;;24.10;80.20;;;;;;5033789;28;20199;-75
2022/06/24 01:29:25;;;;;;;2.63;1.40;;;24.10;80.30;;;;;;5033528;28;20207;-75
2022/06/24 01:31:53;;;;;;;1.40;1.30;;;24.10;80.20;;;;;;5032846;28;20194;-76
2022/06/24 01:34:24;;;;;;;4.22;1.48;;;24.00;80.10;;;;;;5032897;28;20244;-75
2022/06/24 01:36:50;;;;;;;2.85;1.30;;;24.00;80.00;;;;;;5032393;28;20183;-76
2022/06/24 01:39:16;;;;;;;3.28;1.52;;;24.00;80.00;;;;;;5032732;28;20242;-75
2022/06/24 01:41:42;;;;;;;2.05;1.27;;;24.10;80.10;;;;;;5032659;28;20245;-75
2022/06/24 01:44:08;;;;;;;1.42;1.30;;;24.00;80.00;;;;;;5032677;28;20187;-75
2022/06/24 01:46:34;;;;;;;2.35;1.30;;;24.00;80.00;;;;;;5032372;28;20179;-75
2022/06/24 01:49:00;;;;;;;1.73;1.30;;;24.10;80.10;;;;;;5032450;28;20726;-75
2022/06/24 01:51:28;;;;;;;2.03;1.45;;;24.10;80.10;;;;;;5032419;28;20278;-75
2022/06/24 01:53:53;;;;;;;3.40;1.52;;;24.00;79.90;;;;;;5032659;28;20188;-74
2022/06/24 01:56:20;;;;;;;2.78;1.42;;;24.00;79.90;;;;;;5031710;28;20187;-75
2022/06/24 01:58:46;;;;;;;2.67;1.58;;;24.10;80.00;;;;;;5032413;28;20693;-75
2022/06/24 02:01:12;;;;;;;1.95;1.60;;;24.00;80.60;;;;;;5032319;28;20214;-75
2022/06/24 02:03:39;;;;;;;1.33;1.17;;;24.00;79.90;;;;;;5032309;28;20179;-75
2022/06/24 02:06:08;;;;;;;4.03;1.52;;;24.00;79.80;;;;;;5031288;28;20195;-75
2022/06/24 02:08:34;;;;;;;2.83;1.30;;;24.00;79.80;;;;;;5032427;28;20187;-75
2022/06/24 02:13:48;;;;;;;2.75;1.30;;;24.00;79.90;;;;;;5033405;28;20179;-75
2022/06/24 02:16:15;;;;;;;1.30;1.20;;;24.00;79.80;;;;;;5015133;28;20765;-75
2022/06/24 02:18:41;;;;;;;1.42;1.27;;;24.00;79.80;;;;;;5032143;28;20194;-74
2022/06/24 02:21:07;;;;;;;1.40;1.15;;;24.00;79.80;;;;;;5032218;28;20223;-75
2022/06/24 02:23:34;;;;;;;3.25;1.20;;;24.00;79.80;;;;;;5031971;28;20285;-75
2022/06/24 02:26:00;;;;;;;2.25;1.38;;;24.00;79.70;;;;;;5015028;28;20262;-75
2022/06/24 02:28:26;;;;;;;3.72;1.52;;;24.00;79.70;;;;;;5031965;28;20209;-74
2022/06/24 02:30:58;;;;;;;1.10;1.00;;;24.00;79.70;;;;;;5031824;28;20237;-75
2022/06/24 02:33:25;;;;;;;1.30;1.20;;;24.00;79.60;;;;;;5031730;28;20254;-75
2022/06/24 02:35:51;;;;;;;2.42;1.40;;;24.00;79.60;;;;;;5031120;28;20321;-75
2022/06/24 02:38:17;;;;;;;2.45;1.48;;;24.00;79.70;;;;;;5031708;28;20187;-74
2022/06/24 02:40:49;;;;;;;1.55;1.27;;;24.00;79.60;;;;;;5032726;28;20284;-75
2022/06/24 02:43:27;;;;;;;2.33;1.15;;;23.90;79.50;;;;;;5031483;28;20215;-75
2022/06/24 02:46:10;;;;;;;2.40;1.33;;;24.00;79.60;;;;;;5031112;28;20285;-75
2022/06/24 02:48:40;;;;;;;1.40;1.00;;;24.00;79.60;;;;;;5024562;28;20258;-74
2022/06/24 02:51:08;;;;;;;1.73;1.08;;;24.00;79.60;;;;;;5027818;28;20642;-75
2022/06/24 02:53:35;;;;;;;1.75;1.02;;;24.00;79.60;;;;;;5031355;28;20217;-75
2022/06/24 02:56:10;;;;;;;1.25;1.15;;;24.00;79.60;;;;;;5030969;28;20184;-75
2022/06/24 02:58:37;;;;;;;1.70;1.27;;;24.00;79.60;;;;;;5031624;28;20677;-75
2022/06/24 03:01:04;;;;;;;1.52;1.20;;;23.90;79.50;;;;;;5031243;28;20203;-75
2022/06/24 03:03:30;;;;;;;1.98;1.23;;;23.90;79.50;;;;;;5031490;28;20214;-75
2022/06/24 03:05:56;;;;;;;1.85;1.15;;;24.00;79.60;;;;;;5030358;28;20301;-75
2022/06/24 03:08:25;;;;;;;1.95;1.17;;;23.90;79.50;;;;;;5031408;28;20274;-75
2022/06/24 03:10:51;;;;;;;1.75;1.30;;;23.90;79.50;;;;;;5031606;28;20661;-75
2022/06/24 03:13:18;;;;;;;2.13;1.20;;;24.00;79.60;;;;;;5031565;28;20187;-75
2022/06/24 03:15:45;;;;;;;2.30;1.40;;;23.90;79.50;;;;;;5030993;28;20179;-74
2022/06/24 03:18:13;;;;;;;2.15;1.15;;;24.00;79.60;;;;;;5031414;28;20191;-75
2022/06/24 03:20:40;;;;;;;1.65;1.10;;;24.00;79.60;;;;;;5031002;28;20265;-75
2022/06/24 03:23:05;;;;;;;1.23;1.10;;;24.00;79.60;;;;;;5031174;28;20258;-75
2022/06/24 03:25:31;;;;;;;2.80;1.25;;;23.90;79.50;;;;;;5030737;28;20627;-75
2022/06/24 03:28:00;;;;;;;2.28;1.20;;;23.90;79.50;;;;;;5032356;28;20176;-75
2022/06/24 03:30:25;;;;;;;1.55;1.33;;;23.90;79.50;;;;;;5030862;28;20207;-76
2022/06/24 03:32:51;;;;;;;2.08;1.00;;;23.90;79.50;;;;;;5031095;28;20184;-73
2022/06/24 03:35:17;;;;;;;1.23;1.13;;;23.90;79.50;;;;;;5030489;28;20630;-76
2022/06/24 03:37:44;;;;;;;2.67;1.00;;;23.90;79.50;;;;;;5031161;28;20186;-76
2022/06/24 03:40:11;;;;;;;1.38;1.20;;;23.90;79.50;;;;;;5032048;28;20217;-76
2022/06/24 03:42:37;;;;;;;1.98;1.30;;;23.90;79.50;;;;;;5031165;28;20211;-76
2022/06/24 03:45:03;;;;;;;2.05;1.20;;;23.90;79.50;;;;;;5030346;28;20238;-77
2022/06/24 03:47:29;;;;;;;1.85;1.17;;;23.90;79.50;;;;;;5030879;28;20187;-77
2022/06/24 03:49:54;;;;;;;2.78;1.20;;;23.90;79.50;;;;;;5030769;28;20199;-76
2022/06/24 03:52:20;;;;;;;3.65;1.20;;;23.90;79.60;;;;;;5031094;28;20202;-76
2022/06/24 03:54:46;;;;;;;2.13;1.13;;;23.90;79.50;;;;;;5031344;28;20603;-76
2022/06/24 03:57:12;;;;;;;1.73;1.10;;;23.90;79.50;;;;;;5030258;28;20242;-76
2022/06/24 03:59:38;;;;;;;1.27;1.10;;;23.90;79.50;;;;;;5030770;28;20206;-76
2022/06/24 04:02:04;;;;;;;2.78;1.30;;;23.90;79.50;;;;;;5030965;28;20204;-73
2022/06/24 04:04:30;;;;;;;2.70;1.20;;;23.90;79.50;;;;;;5030560;28;20183;-76
2022/06/24 04:06:56;;;;;;;1.98;1.33;;;23.90;79.50;;;;;;5030454;28;20186;-76
2022/06/24 04:09:22;;;;;;;2.80;1.33;;;23.90;79.50;;;;;;5030698;28;20218;-76
2022/06/24 04:11:48;;;;;;;1.55;1.40;;;23.90;79.50;;;;;;5030662;28;20187;-76
2022/06/24 04:15:13;;;;;;;3.75;1.30;;;23.90;79.50;;;;;;5030665;28;20256;-76
2022/06/24 04:17:03;;;;;;;2.00;1.23;;;23.90;79.50;;;;;;5029954;28;20218;-77
2022/06/24 04:19:29;;;;;;;2.85;1.35;;;23.90;79.50;;;;;;5032426;28;20218;-76
2022/06/24 04:21:55;;;;;;;1.85;1.15;;;23.80;80.20;;;;;;5034265;28;20252;-76
2022/06/24 04:24:21;;;;;;;1.50;1.00;;;23.90;79.50;;;;;;5034246;28;20615;-76
2022/06/24 04:26:46;;;;;;;1.70;1.00;;;23.90;79.50;;;;;;5033767;28;20190;-76
2022/06/24 04:29:12;;;;;;;3.25;1.38;;;23.90;79.50;;;;;;5034068;28;20256;-76
2022/06/24 04:31:38;;;;;;;3.15;1.27;;;23.80;79.40;;;;;;5035344;28;20171;-76
2022/06/24 04:34:04;;;;;;;1.50;1.20;;;23.80;79.40;;;;;;5034458;28;20270;-76
2022/06/24 04:36:30;;;;;;;1.90;1.10;;;23.80;79.40;;;;;;5033351;28;20236;-77
2022/06/24 04:38:55;;;;;;;1.85;1.40;;;23.90;79.50;;;;;;5034165;28;20586;-76
2022/06/24 04:41:21;;;;;;;0.80;0.80;;;23.90;79.50;;;;;;5033965;28;20211;-76
2022/06/24 04:43:47;;;;;;;3.42;1.33;;;23.90;79.50;;;;;;5034261;28;20190;-76
2022/06/24 04:46:13;;;;;;;2.30;1.25;;;23.80;79.40;;;;;;5033228;28;20175;-76
2022/06/24 04:48:39;;;;;;;2.20;1.40;;;23.90;79.40;;;;;;5017269;28;20651;-76
2022/06/24 04:51:06;;;;;;;1.70;1.23;;;23.90;79.40;;;;;;5034068;28;20184;-76
2022/06/24 04:53:31;;;;;;;2.50;1.60;;;23.80;79.10;;;;;;5033729;28;20183;-77
2022/06/24 04:55:58;;;;;;;2.97;1.30;;;23.90;79.20;;;;;;5033083;28;20321;-76
2022/06/24 04:58:24;;;;;;;1.95;1.10;;;23.90;79.20;;;;;;5033591;28;20723;-75
2022/06/24 05:00:50;;;;;;;2.03;1.17;;;23.90;79.20;;;;;;5034889;28;20276;-75
2022/06/24 05:03:16;;;;;;;1.33;1.00;;;23.80;79.00;;;;;;5033305;28;20191;-76
2022/06/24 05:05:42;;;;;;;2.15;1.40;;;23.90;79.10;;;;;;5032510;28;20191;-76
2022/06/24 05:08:08;;;;;;;1.95;1.20;;;23.90;79.00;;;;;;5033780;28;20187;-76
2022/06/24 05:10:33;;;;;;;1.85;1.30;;;23.90;79.00;;;;;;5033386;28;20626;-75
2022/06/24 05:12:59;;;;;;;4.13;1.50;;;23.80;78.90;;;;;;5033654;28;20191;-75
2022/06/24 05:15:25;;;;;;;2.22;1.33;;;23.90;79.00;;;;;;5032886;28;20191;-75
2022/06/24 05:17:51;;;;;;;1.67;1.10;;;23.80;78.90;;;;;;5033681;28;20275;-75
2022/06/24 05:20:17;;;;;;;1.23;1.02;;;23.90;79.00;;;;;;5049279;28;20218;-76
2022/06/24 05:22:43;;;;;;;1.40;1.25;;;23.90;79.00;;;;;;5033070;28;20686;-75
2022/06/24 05:25:09;;;;;;;1.58;1.38;;;23.80;78.90;;;;;;5033337;28;20188;-75
2022/06/24 05:27:35;;;;;;;1.60;1.15;;;23.90;79.00;;;;;;5032638;28;20187;-75
2022/06/24 05:30:01;;;;;;;1.55;1.15;;;23.80;78.90;;;;;;5032485;28;20203;-76
2022/06/24 05:32:27;;;;;;;2.83;1.08;;;23.90;79.00;;;;;;5032910;28;20175;-74
2022/06/24 05:34:53;;;;;;;2.47;1.38;;;23.90;79.00;;;;;;5033349;28;20191;-76
2022/06/24 05:37:18;;;;;;;2.90;1.50;;;23.80;79.00;;;;;;5032247;28;20189;-75
2022/06/24 05:39:44;;;;;;;3.30;1.10;;;23.80;79.00;;;;;;5033947;28;20199;-76
2022/06/24 05:42:10;;;;;;;2.30;0.95;;;23.80;78.90;;;;;;5032719;28;20261;-76
2022/06/24 05:44:36;;;;;;;3.15;1.40;;;23.80;78.90;;;;;;5032848;28;20271;-76
2022/06/24 05:47:02;;;;;;;2.03;1.13;;;23.80;78.90;;;;;;5032368;28;20183;-75
2022/06/24 05:49:28;;;;;;;2.13;1.38;;;23.90;79.00;;;;;;5033953;28;20199;-76
2022/06/24 05:51:53;;;;;;;3.10;1.48;;;23.80;78.90;;;;;;5032757;28;20198;-76
2022/06/24 05:57:04;;;;;;;2.75;1.25;;;23.80;78.80;;;;;;5031669;28;20198;-76
2022/06/24 05:59:30;;;;;;;1.73;1.25;;;23.80;78.80;;;;;;5032334;28;20203;-75
2022/06/24 06:01:56;;;;;;;2.50;1.48;;;23.80;78.90;;;;;;5015746;28;20225;-75
2022/06/24 06:04:22;;;;;;;2.85;1.20;;;23.80;78.90;;;;;;5032051;28;20183;-76
2022/06/24 06:06:48;;;;;;;1.95;1.27;;;23.80;78.90;;;;;;5031874;28;20726;-75
2022/06/24 06:09:14;;;;;;;2.22;1.10;;;23.80;79.00;;;;;;5033075;28;20203;-76
2022/06/24 06:11:40;;;;;;;2.45;1.30;;;23.90;79.20;;;;;;5015824;28;20179;-76
2022/06/24 06:14:06;;;;;;;2.97;1.58;;;23.90;79.10;;;;;;5049013;28;20194;-75
2022/06/24 06:16:31;;;;;;;3.20;1.40;;;23.90;79.10;;;;;;5031559;28;20195;-74
2022/06/24 06:18:57;;;;;;;1.38;1.23;;;23.90;79.10;;;;;;5032006;28;20226;-75
2022/06/24 06:21:23;;;;;;;2.35;1.20;;;23.80;79.10;;;;;;5032296;28;20215;-75
2022/06/24 06:23:49;;;;;;;1.77;1.17;;;23.80;79.10;;;;;;5032097;28;20282;-75
2022/06/24 06:26:15;;;;;;;1.38;1.25;;;23.80;79.20;;;;;;5031376;28;20200;-75
2022/06/24 06:28:41;;;;;;;2.20;1.60;;;23.80;79.20;;;;;;5033016;28;20186;-75
2022/06/24 06:31:09;;;;;;;1.30;1.20;;;23.90;79.50;;;;;;5032021;28;20266;-75
2022/06/24 06:33:35;;;;;;;2.75;1.67;;;23.90;79.50;;;;;;5048520;28;20191;-76
2022/06/24 06:36:06;;;;;;;3.22;1.17;;;23.80;79.40;;;;;;5031252;28;20316;-76
2022/06/24 06:38:33;;;;;;;1.65;1.13;;;23.80;79.40;;;;;;5031723;28;20190;-75
2022/06/24 06:40:59;;;;;;;1.95;1.15;;;23.80;79.40;;;;;;5031478;28;20264;-76
2022/06/24 06:43:24;;;;;;;2.20;1.10;;;23.80;79.40;;;;;;5031383;28;20568;-76
2022/06/24 06:45:51;;;;;;;1.63;1.23;;;23.80;79.60;;;;;;5047769;28;20179;-75
2022/06/24 06:48:17;;;;;;;2.88;1.13;;;23.80;80.40;;;;;;5031878;28;20191;-75
2022/06/24 06:50:42;;;;;;;3.45;1.52;;;23.90;79.90;;;;;;5031439;28;20733;-75
2022/06/24 06:53:08;;;;;;;2.53;1.27;;;23.80;79.60;;;;;;5025448;28;20183;-76
2022/06/24 06:55:34;;;;;;;2.35;1.30;;;23.80;79.70;;;;;;5011353;28;20242;-74
2022/06/24 06:57:59;;;;;;;2.08;1.27;;;23.80;79.60;;;;;;5011897;28;20191;-75
2022/06/24 07:00:25;;;;;;;2.67;1.33;;;23.80;79.70;;;;;;5011544;28;20278;-75
2022/06/24 07:02:52;;;;;;;2.03;1.40;;;23.80;79.80;;;;;;5011777;28;20226;-75
2022/06/24 07:05:18;;;;;;;2.63;1.48;;;23.80;79.80;;;;;;4995121;28;20215;-75
2022/06/24 07:07:44;;;;;;;3.45;1.60;;;23.90;80.00;;;;;;5011320;28;20208;-75
2022/06/24 07:10:09;;;;;;;3.03;1.50;;;23.80;79.90;;;;;;5011429;28;20208;-75
2022/06/24 07:12:35;;;;;;;2.97;1.33;;;23.80;79.90;;;;;;5011645;28;20567;-76
2022/06/24 07:15:01;;;;;;;1.55;1.33;;;23.90;80.10;;;;;;5012754;28;20184;-75
2022/06/24 07:17:26;;;;;;;2.85;1.38;;;23.90;80.20;;;;;;5012074;28;20239;-75
2022/06/24 07:19:53;;;;;;;3.55;1.50;;;23.80;80.20;;;;;;5011673;28;20266;-75
2022/06/24 07:22:19;;;;;;;3.28;1.33;;;23.90;80.30;;;;;;5011294;28;20215;-75
2022/06/24 07:24:45;;;;;;;1.83;1.30;;;23.80;80.10;;;;;;5011421;28;20191;-76
2022/06/24 07:27:11;;;;;;;2.13;1.30;;;23.90;80.30;;;;;;5011127;28;20325;-75
2022/06/24 07:29:37;;;;;;;2.03;1.30;;;23.90;80.30;;;;;;5011268;28;20212;-75
2022/06/24 07:32:06;;;;;;;3.33;1.30;;;23.90;80.50;;;;;;5011731;28;20196;-75
2022/06/24 07:34:33;;;;;;;2.90;1.70;;;23.90;80.50;;;;;;5011584;28;20194;-75
2022/06/24 07:37:01;;;;;;;4.78;1.70;;;23.90;80.50;;;;;;5010891;28;20188;-75
2022/06/24 07:39:28;;;;;;;2.10;1.17;;;23.80;80.80;;;;;;5011210;28;20269;-74
2022/06/24 07:41:54;;;;;;;1.40;1.30;;;23.80;80.80;;;;;;5012436;28;20691;-75
2022/06/24 07:44:21;;;;;;;2.55;1.30;;;23.90;80.60;;;;;;5011393;28;20195;-75
2022/06/24 07:46:48;;;;;;;4.55;1.63;;;23.90;80.80;;;;;;4994217;28;20196;-75
2022/06/24 07:49:14;;;;;;;1.58;1.30;;;23.90;80.90;;;;;;5011394;28;20211;-75
2022/06/24 07:51:39;;;;;;;3.63;1.30;;;23.90;81.10;;;;;;5011174;28;20180;-75
2022/06/24 07:54:07;;;;;;;6.72;1.80;;;23.90;80.70;;;;;;5014057;28;20621;-75
2022/06/24 07:59:19;;;;;;;3.40;1.48;;;23.90;80.50;;;;;;5015126;28;20289;-75
2022/06/24 08:01:45;;;;;;;2.38;1.40;;;23.90;80.20;;;;;;5014863;28;20291;-75
2022/06/24 08:04:11;;;;;;;3.00;1.70;;;23.90;80.20;;;;;;5014687;28;20604;-75
2022/06/24 08:06:46;;;;;;;2.08;1.70;;;23.90;80.10;;;;;;5014227;28;20179;-74
2022/06/24 08:09:16;;;;;;;4.15;1.40;;;23.90;80.10;;;;;;4998488;28;20206;-75
2022/06/24 08:11:42;;;;;;;4.63;1.92;;;23.90;80.10;;;;;;5015079;28;20186;-75
2022/06/24 08:14:08;;;;;;;2.45;1.50;;;23.90;80.00;;;;;;5014810;28;20564;-76
2022/06/24 08:16:34;;;;;;;1.98;1.52;;;23.90;80.00;;;;;;5015332;28;20230;-75
2022/06/24 08:19:00;;;;;;;2.78;1.45;;;23.90;79.90;;;;;;5014764;28;20212;-76
2022/06/24 08:21:26;;;;;;;2.40;1.38;;;23.90;79.90;;;;;;5032657;28;20250;-75
2022/06/24 08:23:52;;;;;;;2.05;1.52;;;23.90;79.90;;;;;;5017818;28;20211;-75
2022/06/24 08:26:18;;;;;;;2.05;1.50;;;23.90;79.90;;;;;;5017543;28;20191;-75
2022/06/24 08:28:44;;;;;;;3.08;1.30;;;23.90;79.90;;;;;;5034127;28;20194;-75
2022/06/24 08:31:10;;;;;;;2.08;1.30;;;23.90;79.90;;;;;;5034109;28;20179;-75
2022/06/24 08:33:36;;;;;;;2.80;1.58;;;23.90;79.90;;;;;;5050581;28;20632;-75
2022/06/24 08:36:03;;;;;;;1.75;1.27;;;23.90;79.80;;;;;;5050319;28;20210;-76
2022/06/24 08:38:30;;;;;;;2.60;1.13;;;23.90;79.60;;;;;;5033927;28;20245;-74
2022/06/24 08:41:00;;;;;;;2.35;1.40;;;24.00;79.60;;;;;;5050421;28;20670;-75
2022/06/24 08:43:30;;;;;;;1.52;1.35;;;24.00;79.60;;;;;;5050485;28;20211;-75
2022/06/24 08:45:58;;;;;;;2.38;1.48;;;24.00;79.60;;;;;;5033185;28;20262;-75
2022/06/24 08:48:27;;;;;;;3.13;1.58;;;23.90;79.50;;;;;;5050836;28;20222;-75
2022/06/24 08:50:54;;;;;;;3.55;1.80;;;24.00;79.60;;;;;;5050420;28;20175;-75
2022/06/24 08:53:22;;;;;;;3.13;1.70;;;24.00;79.60;;;;;;5034141;28;20188;-76
2022/06/24 08:55:50;;;;;;;1.77;1.50;;;24.00;79.60;;;;;;5013275;28;20291;-75
2022/06/24 08:58:18;;;;;;;2.45;1.30;;;24.00;79.60;;;;;;5014018;28;20180;-75
2022/06/24 09:00:44;;;;;;;3.92;1.42;;;24.00;79.60;;;;;;5013991;28;20207;-76
2022/06/24 09:03:11;;;;;;;1.90;1.60;;;23.90;79.50;;;;;;4997574;28;20226;-75
2022/06/24 09:05:37;;;;;;;1.48;1.08;;;24.00;79.60;;;;;;4995735;28;20184;-74
2022/06/24 09:08:15;;;;;;;2.80;1.80;;;23.90;79.40;;;;;;5013772;28;20180;-74
2022/06/24 09:13:45;;;;;;;3.17;1.55;;;24.00;79.50;;;;;;5013547;28;20241;-75
2022/06/24 09:16:13;;;;;;;2.60;1.60;;;23.90;79.40;;;;;;4996641;28;20172;-75
2022/06/24 09:18:40;;;;;;;2.15;1.40;;;24.00;79.50;;;;;;4997499;28;20204;-76
2022/06/24 09:21:06;;;;;;;2.25;1.45;;;24.00;79.50;;;;;;5013516;28;20191;-76
2022/06/24 09:23:32;;;;;;;2.55;1.40;;;24.00;79.40;;;;;;5013653;28;20184;-76
2022/06/24 09:26:00;;;;;;;2.08;1.20;;;23.90;79.30;;;;;;5012771;28;20183;-75
2022/06/24 09:28:31;;;;;;;2.08;1.20;;;23.90;79.30;;;;;;5013557;28;20188;-74
2022/06/24 09:31:01;;;;;;;2.33;1.30;;;24.00;79.50;;;;;;5013615;28;20168;-75
2022/06/24 09:33:35;;;;;;;1.73;1.30;;;23.90;79.40;;;;;;4997179;28;20184;-76
2022/06/24 09:36:04;;;;;;;2.03;1.33;;;23.90;79.30;;;;;;5013887;28;20172;-76
2022/06/24 09:38:30;;;;;;;4.65;1.50;;;23.90;79.10;;;;;;5013325;28;20180;-75
2022/06/24 09:41:05;;;;;;;1.77;1.58;;;23.90;79.00;;;;;;5013281;28;20187;-75
2022/06/24 09:43:32;;;;;;;2.50;1.42;;;24.00;79.00;;;;;;5012946;28;20238;-75
2022/06/24 09:45:59;;;;;;;1.70;1.23;;;24.00;78.90;;;;;;4995980;28;20216;-76
2022/06/24 09:48:30;;;;;;;2.95;1.27;;;24.00;79.00;;;;;;5013224;28;20274;-75
2022/06/24 09:51:03;;;;;;;2.13;1.30;;;23.90;78.90;;;;;;5013161;28;20509;-76
2022/06/24 09:53:32;;;;;;;1.40;1.17;;;23.90;78.90;;;;;;4996468;28;20200;-75
2022/06/24 09:56:00;;;;;;;1.75;1.23;;;24.00;79.00;;;;;;4995863;28;20242;-75
2022/06/24 09:58:26;;;;;;;2.38;1.35;;;23.90;78.90;;;;;;5014002;28;20179;-75
2022/06/24 10:00:52;;;;;;;2.10;1.35;;;24.00;78.90;;;;;;5012499;28;20180;-75
2022/06/24 10:03:18;;;;;;;2.53;1.30;;;24.00;78.90;;;;;;5012509;28;20274;-75
2022/06/24 10:05:50;;;;;;;1.75;1.30;;;24.00;78.80;;;;;;5011754;28;20176;-75
2022/06/24 10:08:23;;;;;;;2.65;1.30;;;24.00;78.70;;;;;;5012651;28;20279;-75
2022/06/24 10:10:55;;;;;;;2.17;1.48;;;24.00;78.70;;;;;;5012710;28;20208;-75
2022/06/24 10:13:27;;;;;;;1.40;1.30;;;24.00;78.70;;;;;;5012785;28;20168;-75
2022/06/24 10:16:02;;;;;;;1.80;1.30;;;24.00;78.60;;;;;;5011815;28;20215;-75
2022/06/24 10:18:34;;;;;;;2.13;1.40;;;24.00;78.60;;;;;;5012305;28;20183;-76
2022/06/24 10:21:03;;;;;;;2.10;1.67;;;24.00;78.50;;;;;;5012343;28;20173;-75
2022/06/24 10:23:39;;;;;;;2.72;1.40;;;24.00;78.40;;;;;;4999141;28;20187;-75
2022/06/24 10:26:13;;;;;;;2.45;1.70;;;24.00;78.40;;;;;;5014891;28;20191;-75
2022/06/24 10:29:08;;;;;;;2.25;1.38;;;24.00;78.40;;;;;;5015490;28;20191;-75
2022/06/24 10:31:43;;;;;;;2.00;1.48;;;24.00;78.50;;;;;;5031757;28;20627;-76
2022/06/24 10:34:22;;;;;;;1.90;1.30;;;24.00;78.50;;;;;;5031907;28;20281;-75
2022/06/24 10:36:50;;;;;;;1.65;1.42;;;24.00;78.40;;;;;;5031270;28;20286;-75
2022/06/24 10:39:26;;;;;;;3.47;1.50;;;24.00;78.40;;;;;;5031925;28;20205;-76
2022/06/24 10:42:21;;;;;;;2.22;1.45;;;24.00;78.30;;;;;;5031652;28;20264;-75
2022/06/24 10:45:09;;;;;;;1.98;1.23;;;24.00;78.10;;;;;;5013754;28;20195;-76
2022/06/24 10:47:35;;;;;;;2.08;1.40;;;23.90;78.20;;;;;;5014598;28;20199;-75
2022/06/24 10:50:02;;;;;;;1.85;1.27;;;24.00;78.40;;;;;;5029104;28;20199;-75
2022/06/24 10:52:38;;;;;;;1.95;1.40;;;24.00;78.50;;;;;;5031601;28;20183;-76
2022/06/24 10:55:16;;;;;;;2.78;1.20;;;24.00;78.50;;;;;;5031264;28;20300;-75
2022/06/24 10:57:57;;;;;;;2.33;1.60;;;23.90;79.20;;;;;;5030768;28;20274;-75
2022/06/24 11:00:42;;;;;;;1.33;1.23;;;23.90;78.30;;;;;;5048160;28;20286;-76
2022/06/24 11:03:07;;;;;;;2.08;1.30;;;23.90;78.40;;;;;;5047809;28;20203;-75
2022/06/24 11:05:39;;;;;;;2.15;1.33;;;24.00;78.70;;;;;;5026931;28;20180;-75
2022/06/24 11:08:24;;;;;;;2.30;1.42;;;23.90;78.70;;;;;;5011250;28;20624;-75
2022/06/24 11:10:51;;;;;;;2.15;1.45;;;23.90;78.80;;;;;;5012676;28;20679;-76
2022/06/24 11:13:21;;;;;;;1.50;1.40;;;24.00;78.80;;;;;;5012711;28;20276;-75
2022/06/24 11:15:51;;;;;;;2.55;1.65;;;23.90;78.70;;;;;;5011602;28;20184;-74
2022/06/24 11:18:24;;;;;;;2.35;1.15;;;24.00;78.80;;;;;;5019839;28;20230;-76
2022/06/24 11:20:51;;;;;;;1.33;1.17;;;24.00;78.80;;;;;;5015516;28;20967;-76
2022/06/24 11:23:20;;;;;;;1.98;1.60;;;24.00;79.60;;;;;;4995033;28;20212;-76
2022/06/24 11:25:58;;;;;;;1.30;1.20;;;24.00;78.80;;;;;;5011433;28;20207;-76
2022/06/24 11:28:26;;;;;;;2.28;1.58;;;24.00;78.70;;;;;;5015707;28;20230;-76
2022/06/24 11:30:55;;;;;;;3.33;1.20;;;24.10;79.00;;;;;;5018242;28;20194;-76
2022/06/24 11:33:22;;;;;;;1.50;1.38;;;24.00;78.90;;;;;;5017967;28;20648;-76
2022/06/24 11:35:50;;;;;;;1.58;1.27;;;24.00;78.90;;;;;;5017762;28;20195;-75
2022/06/24 11:38:19;;;;;;;2.08;1.60;;;24.10;79.20;;;;;;5001466;28;20190;-76
2022/06/24 11:40:46;;;;;;;2.92;1.35;;;24.00;79.10;;;;;;5017862;28;20203;-76
2022/06/24 11:43:13;;;;;;;2.20;1.30;;;24.00;79.10;;;;;;5018007;28;20212;-75
2022/06/24 11:45:48;;;;;;;1.35;1.05;;;24.10;79.30;;;;;;5017901;28;20176;-75
2022/06/24 11:48:24;;;;;;;3.08;1.60;;;24.00;79.20;;;;;;5017785;28;20187;-74
2022/06/24 11:50:53;;;;;;;3.45;1.38;;;24.00;78.90;;;;;;5017614;28;20294;-73
2022/06/24 11:53:24;;;;;;;1.45;1.30;;;24.00;78.90;;;;;;5001508;28;20203;-75
2022/06/24 11:55:52;;;;;;;3.72;1.20;;;24.10;79.30;;;;;;5051270;28;20212;-73
2022/06/24 11:58:20;;;;;;;2.58;1.50;;;24.10;79.20;;;;;;5038648;28;20215;-75
2022/06/24 12:00:47;;;;;;;2.55;1.38;;;24.10;79.30;;;;;;5037599;28;20570;-75
2022/06/24 12:03:14;;;;;;;2.72;1.60;;;24.00;79.20;;;;;;5037202;28;20632;-75
2022/06/24 12:05:44;;;;;;;1.92;1.35;;;24.00;79.20;;;;;;5037850;28;20618;-75
2022/06/24 12:08:11;;;;;;;1.88;1.30;;;24.00;79.20;;;;;;5036669;28;20183;-75
2022/06/24 12:10:52;;;;;;;2.28;1.30;;;24.00;79.20;;;;;;5037576;28;20210;-75
2022/06/24 12:13:32;;;;;;;1.30;1.20;;;24.00;79.00;;;;;;5037036;28;20179;-75
2022/06/24 12:15:58;;;;;;;2.00;1.40;;;24.00;79.80;;;;;;5036974;28;20266;-75
2022/06/24 12:18:26;;;;;;;2.28;1.13;;;24.10;79.10;;;;;;5037525;28;20187;-75
2022/06/24 12:21:00;;;;;;;1.60;1.40;;;24.00;79.10;;;;;;5037548;28;20553;-75
2022/06/24 12:23:38;;;;;;;2.30;1.20;;;24.00;79.20;;;;;;5037311;28;20184;-75
2022/06/24 12:26:14;;;;;;;2.03;1.52;;;24.10;79.60;;;;;;5036839;28;20175;-75
2022/06/24 12:28:40;;;;;;;1.80;1.40;;;24.10;79.70;;;;;;5037422;28;20262;-75
2022/06/24 12:31:11;;;;;;;2.20;1.20;;;24.00;79.60;;;;;;5037513;28;20175;-74
2022/06/24 12:33:51;;;;;;;2.88;1.40;;;24.00;80.40;;;;;;5020964;28;20194;-76
2022/06/24 12:36:21;;;;;;;3.15;1.33;;;24.00;80.00;;;;;;5036560;28;20179;-75
2022/06/24 12:38:53;;;;;;;2.25;1.50;;;24.00;79.60;;;;;;5036231;28;20199;-75
2022/06/24 12:41:21;;;;;;;1.95;1.52;;;24.00;79.50;;;;;;5033442;28;20217;-74
2022/06/24 12:43:55;;;;;;;2.72;1.27;;;24.00;79.50;;;;;;5035155;28;20184;-75
2022/06/24 12:46:25;;;;;;;2.85;1.38;;;24.00;79.60;;;;;;5016833;28;20282;-74
2022/06/24 12:51:42;;;;;;;2.72;1.42;;;24.00;79.90;;;;;;5033745;28;20198;-75
2022/06/24 12:54:09;;;;;;;1.33;1.23;;;24.00;80.20;;;;;;5033926;28;20647;-75
2022/06/24 12:56:35;;;;;;;2.08;1.30;;;24.00;80.30;;;;;;5016593;28;20651;-75
2022/06/24 12:59:02;;;;;;;1.20;1.10;;;24.00;80.20;;;;;;5009925;28;20203;-75
2022/06/24 13:01:29;;;;;;;1.42;1.20;;;24.00;80.00;;;;;;5014020;28;20274;-75
2022/06/24 13:03:55;;;;;;;1.88;1.17;;;24.00;79.70;;;;;;5013775;28;20176;-75
2022/06/24 13:06:21;;;;;;;1.83;1.30;;;24.00;79.50;;;;;;5026678;28;20624;-75
2022/06/24 13:08:47;;;;;;;3.65;1.30;;;24.00;79.60;;;;;;5033696;28;20226;-75